Time;durP1;ratioP1;P1;durP2;ratioP2;P2;SDS_P1;SDS_P2;PMS_P1;PMS_P2;Temp;Humidity;BMP_temperature;BMP_pressure;BME280_temperature;BME280_humidity;BME280_pressure;Samples;Min_cycle;Max_cycle;Signal;HPM_P1;HPM_P2
2022/08/20 00:01:17;;;;;;;0.50;0.50;;;20.40;99.90;;;;;;5031679;28;20436;-59
2022/08/20 00:03:47;;;;;;;0.60;0.60;;;20.40;99.90;;;;;;5027851;28;20508;-60
2022/08/20 00:06:21;;;;;;;0.80;0.80;;;20.40;99.90;;;;;;5030799;28;20427;-59
2022/08/20 00:08:48;;;;;;;0.57;0.57;;;20.50;99.90;;;;;;5031402;28;20438;-59
2022/08/20 00:11:20;;;;;;;0.77;0.75;;;20.60;99.90;;;;;;5025977;28;20431;-59
2022/08/20 00:13:52;;;;;;;0.60;0.60;;;20.70;99.90;;;;;;5026896;28;20430;-59
2022/08/20 00:16:21;;;;;;;0.60;0.60;;;20.70;99.90;;;;;;5032702;28;20493;-60
2022/08/20 00:18:48;;;;;;;0.52;0.52;;;20.80;99.90;;;;;;5043164;28;20524;-60
2022/08/20 00:21:17;;;;;;;0.60;0.60;;;20.80;99.90;;;;;;5029604;28;20522;-59
2022/08/20 00:23:48;;;;;;;0.60;0.60;;;20.90;99.90;;;;;;5024939;28;20530;-59
2022/08/20 00:26:16;;;;;;;0.63;0.63;;;20.80;99.90;;;;;;5025497;28;20913;-59
2022/08/20 00:28:42;;;;;;;0.55;0.55;;;20.80;99.90;;;;;;5049332;28;20425;-60
2022/08/20 00:31:15;;;;;;;0.50;0.50;;;20.80;99.90;;;;;;5044702;28;20445;-60
2022/08/20 00:33:46;;;;;;;0.40;0.40;;;20.80;99.90;;;;;;5058418;28;20465;-60
2022/08/20 00:36:14;;;;;;;0.60;0.60;;;20.80;99.90;;;;;;5036476;28;20518;-60
2022/08/20 00:38:43;;;;;;;0.70;0.70;;;20.80;99.90;;;;;;5029160;28;20429;-60
2022/08/20 00:41:13;;;;;;;0.60;0.52;;;20.70;99.90;;;;;;5043027;28;20426;-60
2022/08/20 00:44:03;;;;;;;0.60;0.60;;;20.70;99.90;;;;;;5033438;28;20434;-60
2022/08/20 00:46:30;;;;;;;0.55;0.55;;;20.70;99.90;;;;;;5015257;28;20435;-59
2022/08/20 00:48:59;;;;;;;0.50;0.50;;;20.80;99.90;;;;;;5026171;28;20488;-59
2022/08/20 00:51:40;;;;;;;0.60;0.60;;;20.80;99.90;;;;;;5039030;28;20433;-59
2022/08/20 00:54:21;;;;;;;0.68;0.68;;;20.80;99.90;;;;;;5022606;28;20597;-60
2022/08/20 00:56:56;;;;;;;0.47;0.47;;;20.90;99.90;;;;;;5022406;28;20893;-59
2022/08/20 00:59:27;;;;;;;0.68;0.68;;;20.90;99.90;;;;;;5027547;28;20444;-59
2022/08/20 01:01:56;;;;;;;0.45;0.45;;;20.90;99.90;;;;;;5035639;28;20429;-59
2022/08/20 01:04:27;;;;;;;0.50;0.50;;;20.90;99.90;;;;;;5018376;28;20429;-59
2022/08/20 01:06:54;;;;;;;0.65;0.65;;;20.90;99.90;;;;;;5030125;28;20939;-59
2022/08/20 01:09:21;;;;;;;0.50;0.50;;;20.90;99.90;;;;;;5025959;28;22407;-60
2022/08/20 01:12:09;;;;;;;0.68;0.68;;;20.90;99.90;;;;;;5028202;28;20434;-59
2022/08/20 01:14:45;;;;;;;0.65;0.65;;;20.80;99.90;;;;;;5038193;28;20429;-59
2022/08/20 01:17:22;;;;;;;0.40;0.40;;;20.80;99.90;;;;;;5058493;28;20460;-59
2022/08/20 01:20:11;;;;;;;0.57;0.57;;;20.70;99.90;;;;;;5028585;28;20431;-59
2022/08/20 01:26:05;;;;;;;0.60;0.60;;;20.60;99.90;;;;;;5027456;28;20890;-60
2022/08/20 01:28:40;;;;;;;0.57;0.57;;;20.70;99.90;;;;;;5033617;28;20520;-60
2022/08/20 01:31:10;;;;;;;0.50;0.47;;;20.70;99.90;;;;;;5026916;28;20436;-59
2022/08/20 01:33:37;;;;;;;0.60;0.60;;;20.70;99.90;;;;;;5036245;28;20491;-59
2022/08/20 01:36:06;;;;;;;0.53;0.53;;;20.70;99.90;;;;;;5028250;28;21002;-59
2022/08/20 01:38:34;;;;;;;0.50;0.50;;;20.60;99.90;;;;;;5031036;28;20435;-59
2022/08/20 01:41:25;;;;;;;0.40;0.40;;;20.70;99.90;;;;;;5021298;28;20433;-59
2022/08/20 01:43:58;;;;;;;0.50;0.50;;;20.70;99.90;;;;;;5020319;28;20434;-59
2022/08/20 01:46:46;;;;;;;0.50;0.50;;;20.70;99.90;;;;;;5037625;28;20908;-59
2022/08/20 01:49:21;;;;;;;0.37;0.37;;;20.70;99.90;;;;;;5034724;28;20433;-59
2022/08/20 01:51:51;;;;;;;0.50;0.50;;;20.70;99.90;;;;;;5025285;28;20432;-59
2022/08/20 01:54:19;;;;;;;0.40;0.40;;;20.70;99.90;;;;;;5044197;28;20437;-59
2022/08/20 01:56:52;;;;;;;0.32;0.32;;;20.70;99.90;;;;;;5035423;28;20972;-59
2022/08/20 01:59:18;;;;;;;0.30;0.30;;;20.70;99.90;;;;;;5032382;28;20523;-60
2022/08/20 02:01:45;;;;;;;0.43;0.43;;;20.60;99.90;;;;;;5040033;28;20520;-60
2022/08/20 02:04:15;;;;;;;0.40;0.40;;;20.60;99.90;;;;;;5049431;28;20530;-60
2022/08/20 02:06:47;;;;;;;0.30;0.30;;;20.60;99.90;;;;;;5034004;28;20453;-61
2022/08/20 02:09:28;;;;;;;0.70;0.37;;;20.60;99.90;;;;;;5044919;28;20502;-60
2022/08/20 02:11:56;;;;;;;0.32;0.32;;;20.50;99.90;;;;;;5032977;28;20422;-60
2022/08/20 02:14:23;;;;;;;0.40;0.40;;;20.50;99.90;;;;;;5041413;28;20517;-60
2022/08/20 02:16:50;;;;;;;0.40;0.40;;;20.50;99.90;;;;;;5042292;28;20460;-60
2022/08/20 02:19:44;;;;;;;0.30;0.30;;;20.50;99.90;;;;;;5032114;28;20980;-60
2022/08/20 02:22:22;;;;;;;0.40;0.40;;;20.40;99.90;;;;;;5023148;28;20540;-60
2022/08/20 02:24:51;;;;;;;0.40;0.40;;;20.40;99.90;;;;;;5031074;28;20909;-60
2022/08/20 02:27:22;;;;;;;0.28;0.28;;;20.30;99.90;;;;;;5029833;28;20515;-59
2022/08/20 02:29:50;;;;;;;0.50;0.50;;;20.20;99.90;;;;;;5029569;28;20429;-60
2022/08/20 02:32:20;;;;;;;0.50;0.50;;;20.20;99.90;;;;;;5035072;28;20430;-60
2022/08/20 02:35:02;;;;;;;0.30;0.30;;;20.20;99.90;;;;;;5029513;28;20450;-60
2022/08/20 02:37:29;;;;;;;0.40;0.40;;;20.20;99.90;;;;;;5034640;28;20438;-60
2022/08/20 02:39:59;;;;;;;0.20;0.20;;;20.20;99.90;;;;;;5034479;28;20469;-60
2022/08/20 02:42:35;;;;;;;0.30;0.30;;;20.20;99.90;;;;;;5042186;28;20922;-60
2022/08/20 02:45:04;;;;;;;0.50;0.40;;;20.20;99.90;;;;;;5025696;28;20564;-60
2022/08/20 02:47:31;;;;;;;0.30;0.30;;;20.20;99.90;;;;;;5030311;28;20437;-60
2022/08/20 02:49:58;;;;;;;0.33;0.33;;;20.10;99.90;;;;;;5016995;28;20432;-60
2022/08/20 02:52:25;;;;;;;0.45;0.45;;;20.10;99.90;;;;;;5066726;28;20424;-60
2022/08/20 02:54:52;;;;;;;0.30;0.30;;;20.20;99.90;;;;;;5027121;28;20435;-60
2022/08/20 02:57:19;;;;;;;0.40;0.40;;;20.20;99.90;;;;;;5043271;28;20469;-60
2022/08/20 02:59:52;;;;;;;0.55;0.40;;;20.20;99.90;;;;;;5039565;28;20955;-60
2022/08/20 03:02:19;;;;;;;0.43;0.43;;;20.20;99.90;;;;;;5035869;28;20435;-60
2022/08/20 03:04:45;;;;;;;0.40;0.40;;;20.20;99.90;;;;;;5038653;28;20431;-60
2022/08/20 03:07:13;;;;;;;0.30;0.30;;;20.20;99.90;;;;;;5031141;28;21162;-60
2022/08/20 03:09:40;;;;;;;0.40;0.40;;;20.20;99.90;;;;;;5020057;28;21064;-60
2022/08/20 03:12:07;;;;;;;0.73;0.43;;;20.20;99.90;;;;;;5028803;28;20429;-60
2022/08/20 03:14:35;;;;;;;1.63;0.35;;;20.20;99.90;;;;;;5022204;28;20444;-60
2022/08/20 03:17:03;;;;;;;0.50;0.50;;;20.20;99.90;;;;;;5028099;28;20426;-61
2022/08/20 03:19:32;;;;;;;0.30;0.30;;;20.20;99.90;;;;;;5040566;28;20920;-59
2022/08/20 03:22:00;;;;;;;0.40;0.40;;;20.20;99.90;;;;;;5030666;28;20879;-60
2022/08/20 03:24:26;;;;;;;0.40;0.40;;;20.20;99.90;;;;;;5024580;28;20434;-60
2022/08/20 03:26:53;;;;;;;0.40;0.40;;;20.30;99.90;;;;;;5030989;28;20495;-60
2022/08/20 03:29:23;;;;;;;0.52;0.50;;;20.30;99.90;;;;;;5020889;28;20840;-60
2022/08/20 03:31:50;;;;;;;0.40;0.40;;;20.30;99.90;;;;;;5051517;28;20521;-60
2022/08/20 03:34:17;;;;;;;0.40;0.40;;;20.30;99.90;;;;;;5031772;28;20435;-60
2022/08/20 03:36:44;;;;;;;0.37;0.37;;;20.30;99.90;;;;;;5061504;28;20978;-60
2022/08/20 03:39:12;;;;;;;0.40;0.40;;;20.30;99.90;;;;;;5031108;28;20951;-60
2022/08/20 03:41:39;;;;;;;0.30;0.30;;;20.30;99.90;;;;;;5032995;28;20425;-60
2022/08/20 03:44:05;;;;;;;0.50;0.50;;;20.30;99.90;;;;;;5033166;28;20451;-60
2022/08/20 03:46:35;;;;;;;0.20;0.20;;;20.30;99.90;;;;;;5028358;28;20585;-59
2022/08/20 03:49:02;;;;;;;0.28;0.28;;;20.30;99.90;;;;;;5033095;28;21132;-60
2022/08/20 03:51:31;;;;;;;0.40;0.40;;;20.30;99.90;;;;;;5037996;28;20429;-60
2022/08/20 03:54:20;;;;;;;0.30;0.30;;;20.20;99.90;;;;;;5010219;28;20456;-60
2022/08/20 03:56:50;;;;;;;2.40;0.40;;;20.20;99.90;;;;;;5014964;28;20519;-60
2022/08/20 03:59:17;;;;;;;0.40;0.40;;;20.20;99.90;;;;;;5034052;28;20435;-60
2022/08/20 04:01:44;;;;;;;0.50;0.50;;;20.20;99.90;;;;;;5035022;28;20429;-60
2022/08/20 04:04:15;;;;;;;0.30;0.30;;;20.10;99.90;;;;;;5030543;28;20427;-60
2022/08/20 04:06:44;;;;;;;0.45;0.45;;;20.10;99.90;;;;;;5036623;28;20425;-60
2022/08/20 04:09:11;;;;;;;0.30;0.30;;;20.00;99.90;;;;;;5060381;28;20469;-60
2022/08/20 04:11:39;;;;;;;0.50;0.40;;;20.00;99.90;;;;;;5038656;28;20469;-60
2022/08/20 04:14:10;;;;;;;0.30;0.30;;;20.00;99.90;;;;;;5019837;28;20435;-60
2022/08/20 04:16:42;;;;;;;0.40;0.40;;;20.00;99.90;;;;;;5040183;28;20437;-59
2022/08/20 04:19:11;;;;;;;0.40;0.40;;;19.90;99.90;;;;;;5031504;28;21137;-60
2022/08/20 04:21:38;;;;;;;0.60;0.60;;;19.90;99.90;;;;;;5025464;28;20461;-59
2022/08/20 04:24:05;;;;;;;0.52;0.52;;;19.90;99.90;;;;;;5029772;28;20497;-60
2022/08/20 04:26:35;;;;;;;1.15;0.55;;;19.90;99.90;;;;;;5028658;28;20506;-59
2022/08/20 04:29:03;;;;;;;0.60;0.60;;;19.80;99.90;;;;;;5039890;28;20448;-60
2022/08/20 04:31:32;;;;;;;0.40;0.40;;;19.80;99.90;;;;;;5036854;28;20437;-60
2022/08/20 04:34:00;;;;;;;0.50;0.50;;;19.80;99.90;;;;;;5030099;28;20519;-60
2022/08/20 04:36:30;;;;;;;0.70;0.70;;;19.80;99.90;;;;;;5030152;28;21008;-60
2022/08/20 04:38:57;;;;;;;0.50;0.50;;;19.80;99.90;;;;;;5030365;28;20422;-60
2022/08/20 04:41:24;;;;;;;0.40;0.40;;;19.80;99.90;;;;;;5028138;28;20461;-60
2022/08/20 04:43:53;;;;;;;0.40;0.40;;;19.80;99.90;;;;;;5035703;28;20425;-60
2022/08/20 04:46:24;;;;;;;0.40;0.40;;;19.80;99.90;;;;;;5034522;28;20431;-60
2022/08/20 04:48:51;;;;;;;0.55;0.55;;;19.80;99.90;;;;;;5029705;28;20907;-60
2022/08/20 04:51:19;;;;;;;0.40;0.40;;;19.80;99.90;;;;;;5035738;28;20847;-60
2022/08/20 04:53:49;;;;;;;0.75;0.47;;;19.80;99.90;;;;;;5028483;28;20438;-60
2022/08/20 04:56:25;;;;;;;0.40;0.40;;;19.90;99.90;;;;;;5026469;28;20427;-60
2022/08/20 04:58:59;;;;;;;0.60;0.60;;;19.90;99.90;;;;;;5029629;28;20827;-60
2022/08/20 05:01:26;;;;;;;0.50;0.50;;;19.90;99.90;;;;;;5030262;28;20431;-60
2022/08/20 05:03:54;;;;;;;0.40;0.40;;;19.90;99.90;;;;;;5035476;28;20432;-60
2022/08/20 05:06:26;;;;;;;0.30;0.30;;;20.00;99.90;;;;;;5024649;28;20434;-60
2022/08/20 05:08:54;;;;;;;0.40;0.40;;;20.00;99.90;;;;;;5029207;28;20986;-60
2022/08/20 05:11:22;;;;;;;0.52;0.43;;;20.10;99.90;;;;;;5030042;28;20483;-60
2022/08/20 05:14:12;;;;;;;0.30;0.30;;;20.10;99.90;;;;;;5026168;28;20466;-60
2022/08/20 05:16:39;;;;;;;0.32;0.32;;;20.10;99.90;;;;;;5027285;28;20955;-60
2022/08/20 05:19:11;;;;;;;0.40;0.40;;;20.10;99.90;;;;;;5014794;28;20450;-60
2022/08/20 05:21:40;;;;;;;0.50;0.50;;;20.20;99.90;;;;;;5027929;28;20433;-60
2022/08/20 05:24:08;;;;;;;0.30;0.30;;;20.20;99.90;;;;;;5024412;28;20439;-60
2022/08/20 05:26:35;;;;;;;0.50;0.50;;;20.20;99.90;;;;;;5040392;28;20429;-60
2022/08/20 05:29:04;;;;;;;0.50;0.50;;;20.30;99.90;;;;;;5034311;28;20502;-60
2022/08/20 05:31:32;;;;;;;0.30;0.30;;;20.40;99.90;;;;;;5033087;28;20430;-60
2022/08/20 05:34:01;;;;;;;0.43;0.43;;;20.50;99.90;;;;;;5015868;28;20459;-60
2022/08/20 05:36:28;;;;;;;0.80;0.40;;;20.60;99.90;;;;;;5018584;28;20514;-60
2022/08/20 05:38:55;;;;;;;0.40;0.40;;;20.70;99.90;;;;;;5018762;28;20427;-60
2022/08/20 05:41:22;;;;;;;0.50;0.50;;;20.80;99.90;;;;;;5025035;28;20428;-60
2022/08/20 05:43:59;;;;;;;0.32;0.32;;;20.90;99.90;;;;;;5021792;28;20868;-60
2022/08/20 05:46:30;;;;;;;0.45;0.45;;;21.00;99.90;;;;;;5017116;28;20443;-60
2022/08/20 05:49:00;;;;;;;0.50;0.50;;;21.10;99.90;;;;;;5021640;28;20439;-60
2022/08/20 05:51:28;;;;;;;0.50;0.50;;;21.20;99.90;;;;;;5019884;28;20435;-60
2022/08/20 05:53:56;;;;;;;0.60;0.60;;;21.20;99.90;;;;;;5023720;28;20806;-61
2022/08/20 05:56:28;;;;;;;0.70;0.70;;;21.20;99.90;;;;;;5023942;28;20438;-60
2022/08/20 05:59:02;;;;;;;0.70;0.70;;;21.20;99.90;;;;;;5028575;28;20435;-60
2022/08/20 06:01:30;;;;;;;0.60;0.60;;;21.20;99.90;;;;;;5033680;28;20433;-60
2022/08/20 06:06:44;;;;;;;0.60;0.60;;;21.40;99.90;;;;;;5022588;28;21009;-61
2022/08/20 06:09:21;;;;;;;1.03;0.90;;;21.30;99.90;;;;;;5015132;28;20443;-60
2022/08/20 06:12:05;;;;;;;1.30;1.17;;;20.80;99.90;;;;;;5016760;28;20553;-61
2022/08/20 06:14:32;;;;;;;1.07;1.00;;;20.00;99.90;;;;;;5020901;28;20438;-60
2022/08/20 06:17:08;;;;;;;1.48;1.38;;;19.40;99.90;;;;;;5018970;28;20514;-60
2022/08/20 06:19:38;;;;;;;1.27;1.20;;;19.00;99.90;;;;;;5047638;28;20434;-61
2022/08/20 06:22:10;;;;;;;1.60;1.50;;;18.80;99.90;;;;;;5018238;28;20949;-63
2022/08/20 06:24:50;;;;;;;0.95;0.95;;;18.60;99.90;;;;;;5022677;28;20525;-63
2022/08/20 06:27:17;;;;;;;1.52;1.42;;;18.40;99.90;;;;;;5014612;28;20539;-64
2022/08/20 06:29:44;;;;;;;1.37;1.23;;;18.30;99.90;;;;;;5015304;28;20430;-65
2022/08/20 06:32:12;;;;;;;1.23;1.17;;;18.20;99.90;;;;;;5023156;28;20428;-64
2022/08/20 06:34:39;;;;;;;1.52;1.42;;;18.20;99.90;;;;;;5013438;28;20533;-65
2022/08/20 06:37:23;;;;;;;2.15;1.83;;;18.20;99.90;;;;;;5016634;28;20437;-64
2022/08/20 06:40:02;;;;;;;1.65;1.55;;;18.30;99.90;;;;;;5021668;28;20438;-64
2022/08/20 06:42:29;;;;;;;1.70;1.60;;;18.20;99.90;;;;;;5027171;28;20431;-64
2022/08/20 06:44:58;;;;;;;1.60;1.50;;;18.10;99.90;;;;;;5025350;28;20431;-65
2022/08/20 06:47:25;;;;;;;1.55;1.45;;;18.10;99.90;;;;;;5054320;28;20498;-64
2022/08/20 06:49:52;;;;;;;1.20;1.20;;;18.10;99.90;;;;;;5030082;28;20879;-64
2022/08/20 06:52:18;;;;;;;1.73;1.63;;;18.10;99.90;;;;;;5026231;28;20428;-64
2022/08/20 06:54:55;;;;;;;1.40;1.30;;;18.10;99.90;;;;;;5030098;28;20430;-64
2022/08/20 06:57:23;;;;;;;1.42;1.33;;;18.10;99.90;;;;;;5055982;28;20465;-64
2022/08/20 06:59:53;;;;;;;1.50;1.40;;;18.20;99.90;;;;;;5031747;28;20531;-64
2022/08/20 07:02:22;;;;;;;1.17;1.10;;;18.30;99.90;;;;;;5048587;28;20499;-67
2022/08/20 07:04:56;;;;;;;1.27;1.20;;;18.40;99.90;;;;;;5041049;28;20426;-67
2022/08/20 07:07:22;;;;;;;1.23;1.23;;;18.50;99.90;;;;;;5031121;28;20894;-67
2022/08/20 07:09:57;;;;;;;1.00;1.00;;;18.70;99.90;;;;;;5017395;28;20812;-68
2022/08/20 07:12:24;;;;;;;1.67;1.55;;;18.90;99.90;;;;;;5020468;28;20432;-67
2022/08/20 07:14:51;;;;;;;1.73;1.60;;;19.10;99.90;;;;;;5013566;28;20436;-68
2022/08/20 07:17:17;;;;;;;1.67;1.30;;;19.40;99.90;;;;;;5011820;28;20464;-68
2022/08/20 07:19:44;;;;;;;1.20;1.17;;;19.90;99.90;;;;;;5025319;28;20433;-67
2022/08/20 07:22:13;;;;;;;0.90;0.90;;;20.30;99.90;;;;;;5029244;28;20431;-67
2022/08/20 07:24:47;;;;;;;1.30;1.20;;;20.60;99.90;;;;;;5031482;28;20446;-67
2022/08/20 07:27:20;;;;;;;1.10;1.00;;;20.80;99.90;;;;;;5016438;28;20429;-67
2022/08/20 07:32:38;;;;;;;0.93;0.90;;;21.90;99.90;;;;;;5028330;28;20426;-68
2022/08/20 07:35:13;;;;;;;0.60;0.60;;;22.40;99.90;;;;;;5031091;28;20903;-67
2022/08/20 07:37:43;;;;;;;0.57;0.57;;;22.50;99.90;;;;;;5030913;28;20825;-66
2022/08/20 07:40:13;;;;;;;0.50;0.50;;;23.40;99.90;;;;;;5031432;28;20500;-66
2022/08/20 07:42:40;;;;;;;0.60;0.60;;;24.20;99.90;;;;;;5015274;28;20440;-66
2022/08/20 07:45:09;;;;;;;0.50;0.50;;;24.30;99.90;;;;;;5018896;28;20442;-65
2022/08/20 07:47:41;;;;;;;0.50;0.50;;;24.70;99.90;;;;;;5031271;28;20439;-65
2022/08/20 07:50:10;;;;;;;0.40;0.40;;;25.30;99.90;;;;;;5023084;28;20515;-65
2022/08/20 07:52:39;;;;;;;0.43;0.43;;;25.40;99.90;;;;;;5011233;28;20794;-65
2022/08/20 07:55:10;;;;;;;0.50;0.50;;;25.30;99.90;;;;;;5010159;28;20436;-65
2022/08/20 07:57:37;;;;;;;0.40;0.40;;;25.20;99.90;;;;;;5022183;28;20433;-66
2022/08/20 08:00:07;;;;;;;0.50;0.50;;;24.70;99.90;;;;;;5019197;28;20897;-66
2022/08/20 08:02:36;;;;;;;0.40;0.40;;;24.80;99.90;;;;;;5030760;28;20515;-67
2022/08/20 08:05:06;;;;;;;0.30;0.30;;;24.90;99.90;;;;;;5017431;28;21179;-66
2022/08/20 08:07:35;;;;;;;0.40;0.40;;;25.00;99.90;;;;;;5011456;28;20437;-66
2022/08/20 08:10:06;;;;;;;0.47;0.47;;;25.40;99.90;;;;;;5015462;28;20439;-66
2022/08/20 08:12:40;;;;;;;0.57;0.57;;;25.70;99.90;;;;;;5011187;28;20507;-67
2022/08/20 08:15:14;;;;;;;0.50;0.50;;;26.20;99.90;;;;;;5026876;28;20438;-66
2022/08/20 08:17:47;;;;;;;0.40;0.40;;;26.60;99.90;;;;;;5023425;28;20430;-67
2022/08/20 08:20:14;;;;;;;0.40;0.40;;;27.00;99.90;;;;;;5013041;28;20511;-66
2022/08/20 08:22:43;;;;;;;0.35;0.35;;;26.90;99.90;;;;;;5010628;28;20456;-67
2022/08/20 08:25:12;;;;;;;0.40;0.40;;;26.80;99.90;;;;;;5022032;28;20431;-66
2022/08/20 08:27:39;;;;;;;0.40;0.40;;;26.80;99.90;;;;;;5015440;28;20529;-65
2022/08/20 08:30:08;;;;;;;0.40;0.40;;;26.50;99.90;;;;;;5044815;28;20464;-67
2022/08/20 08:32:36;;;;;;;0.40;0.40;;;26.60;99.90;;;;;;5045333;28;20480;-66
2022/08/20 08:35:06;;;;;;;0.43;0.43;;;26.80;99.90;;;;;;5026771;28;20521;-67
2022/08/20 08:37:37;;;;;;;0.50;0.50;;;27.10;99.90;;;;;;5017068;28;20427;-66
2022/08/20 08:40:04;;;;;;;0.60;0.60;;;27.30;99.90;;;;;;5026194;28;20437;-67
2022/08/20 08:42:40;;;;;;;0.40;0.40;;;27.50;99.90;;;;;;5016932;28;20952;-66
2022/08/20 08:45:11;;;;;;;0.47;0.47;;;27.40;99.90;;;;;;5026994;28;20477;-66
2022/08/20 08:47:40;;;;;;;0.40;0.40;;;27.20;99.90;;;;;;5027314;28;20430;-66
2022/08/20 08:50:14;;;;;;;0.50;0.50;;;26.90;99.90;;;;;;5028317;28;20426;-66
2022/08/20 08:52:59;;;;;;;0.50;0.50;;;26.90;99.90;;;;;;5010457;28;20444;-66
2022/08/20 08:55:28;;;;;;;0.40;0.40;;;26.60;99.90;;;;;;5010697;28;20464;-66
2022/08/20 08:58:02;;;;;;;1.20;0.60;;;26.60;99.90;;;;;;5020635;28;20435;-66
2022/08/20 09:00:44;;;;;;;0.50;0.50;;;26.50;99.90;;;;;;5027884;28;20439;-66
2022/08/20 09:03:28;;;;;;;0.50;0.50;;;26.50;99.90;;;;;;5029709;28;20541;-66
2022/08/20 09:05:58;;;;;;;0.50;0.50;;;26.60;99.90;;;;;;5021876;28;20808;-66
2022/08/20 09:08:33;;;;;;;0.50;0.50;;;26.60;99.90;;;;;;5032093;28;20780;-66
2022/08/20 09:11:05;;;;;;;0.50;0.50;;;26.90;99.90;;;;;;5044465;28;20508;-66
2022/08/20 09:13:32;;;;;;;0.45;0.45;;;27.20;99.90;;;;;;5009823;28;20467;-66
2022/08/20 09:16:01;;;;;;;0.40;0.40;;;27.40;99.90;;;;;;5017065;28;20543;-66
2022/08/20 09:18:28;;;;;;;0.35;0.35;;;27.40;99.90;;;;;;5028064;28;20850;-66
2022/08/20 09:20:55;;;;;;;0.40;0.40;;;27.40;99.90;;;;;;5020715;28;20436;-66
2022/08/20 09:23:22;;;;;;;0.40;0.40;;;28.20;99.90;;;;;;5020628;28;20469;-67
2022/08/20 09:25:49;;;;;;;0.28;0.28;;;28.90;99.90;;;;;;5025186;28;20431;-69
2022/08/20 09:28:16;;;;;;;1.10;0.40;;;29.60;99.90;;;;;;5028388;28;20431;-67
2022/08/20 09:30:43;;;;;;;0.50;0.50;;;29.90;99.90;;;;;;5029033;28;20439;-67
2022/08/20 09:33:11;;;;;;;0.50;0.50;;;29.60;99.90;;;;;;5026146;28;20434;-68
2022/08/20 09:35:39;;;;;;;0.40;0.40;;;29.70;99.90;;;;;;5028540;28;20933;-68
2022/08/20 09:38:06;;;;;;;0.40;0.40;;;29.40;99.90;;;;;;5029667;28;20445;-66
2022/08/20 09:40:33;;;;;;;0.40;0.40;;;29.20;99.90;;;;;;5029227;28;20460;-67
2022/08/20 09:43:02;;;;;;;0.40;0.40;;;29.40;99.90;;;;;;5025279;28;20510;-67
2022/08/20 09:45:29;;;;;;;0.55;0.55;;;29.70;99.90;;;;;;5022998;28;21186;-66
2022/08/20 09:47:55;;;;;;;0.38;0.38;;;30.20;99.90;;;;;;5031475;28;20437;-67
2022/08/20 09:50:29;;;;;;;0.40;0.40;;;30.20;99.90;;;;;;5031020;28;20485;-67
2022/08/20 09:52:58;;;;;;;0.50;0.50;;;29.80;99.90;;;;;;5013831;28;20610;-67
2022/08/20 09:55:40;;;;;;;0.47;0.47;;;29.80;99.90;;;;;;5008496;28;20457;-67
2022/08/20 09:58:25;;;;;;;0.43;0.43;;;29.10;99.90;;;;;;5026722;28;20465;-66
2022/08/20 10:00:52;;;;;;;0.35;0.35;;;28.30;99.90;;;;;;5020357;28;20434;-67
2022/08/20 10:03:19;;;;;;;0.40;0.40;;;27.70;99.90;;;;;;5028812;28;20511;-67
2022/08/20 10:05:46;;;;;;;0.40;0.40;;;27.20;99.90;;;;;;5023130;28;20430;-66
2022/08/20 10:08:17;;;;;;;0.30;0.30;;;26.50;99.90;;;;;;5028984;28;20493;-67
2022/08/20 10:10:43;;;;;;;0.30;0.30;;;26.70;99.90;;;;;;5019245;28;20503;-68
2022/08/20 10:13:10;;;;;;;0.20;0.20;;;27.40;99.90;;;;;;5015162;28;20431;-67
2022/08/20 10:15:41;;;;;;;0.38;0.38;;;28.20;99.90;;;;;;5013526;28;20440;-66
2022/08/20 10:18:08;;;;;;;0.20;0.20;;;29.00;99.90;;;;;;5032310;28;20427;-66
2022/08/20 10:20:41;;;;;;;0.30;0.30;;;29.10;99.90;;;;;;5031737;28;20956;-67
2022/08/20 10:23:08;;;;;;;0.30;0.30;;;29.30;99.90;;;;;;5012271;28;20467;-68
2022/08/20 10:25:42;;;;;;;0.20;0.20;;;30.30;99.90;;;;;;5021105;28;20434;-67
2022/08/20 10:28:08;;;;;;;0.20;0.20;;;31.00;99.90;;;;;;5045428;28;21161;-67
2022/08/20 10:30:35;;;;;;;0.25;0.25;;;30.20;99.90;;;;;;5031581;28;20430;-68
2022/08/20 10:33:05;;;;;;;0.30;0.30;;;30.50;99.90;;;;;;5017621;28;20431;-68
2022/08/20 10:35:34;;;;;;;0.20;0.20;;;31.60;99.90;;;;;;5022534;28;20446;-67
2022/08/20 10:38:01;;;;;;;0.20;0.20;;;31.50;99.90;;;;;;5019404;28;20519;-67
2022/08/20 10:40:30;;;;;;;0.30;0.30;;;31.60;99.90;;;;;;5016599;28;20428;-67
2022/08/20 10:42:57;;;;;;;0.30;0.30;;;31.60;99.90;;;;;;5012291;28;20491;-67
2022/08/20 10:45:26;;;;;;;0.30;0.30;;;31.60;99.80;;;;;;5029447;28;20427;-67
2022/08/20 10:47:53;;;;;;;0.25;0.25;;;31.50;99.90;;;;;;5026873;28;20427;-66
2022/08/20 10:50:20;;;;;;;0.30;0.30;;;31.40;99.90;;;;;;5021630;28;20955;-66
2022/08/20 10:52:47;;;;;;;0.30;0.30;;;31.20;99.20;;;;;;5031695;28;20800;-67
2022/08/20 10:55:14;;;;;;;0.20;0.20;;;31.10;99.30;;;;;;5025218;28;20467;-68
2022/08/20 10:57:48;;;;;;;0.20;0.20;;;31.20;98.90;;;;;;5023002;28;20957;-67
2022/08/20 11:00:16;;;;;;;0.30;0.30;;;32.40;98.60;;;;;;5017610;28;20501;-67
2022/08/20 11:02:43;;;;;;;0.20;0.20;;;33.20;97.30;;;;;;5028312;28;20436;-67
2022/08/20 11:05:12;;;;;;;0.30;0.30;;;33.80;96.70;;;;;;5021758;28;20446;-67
2022/08/20 11:07:41;;;;;;;0.20;0.20;;;34.00;96.00;;;;;;5009352;28;20497;-66
2022/08/20 11:10:25;;;;;;;0.20;0.20;;;33.80;95.80;;;;;;5023302;28;21154;-68
2022/08/20 11:12:52;;;;;;;0.20;0.20;;;33.30;94.70;;;;;;5026895;28;20422;-66
2022/08/20 11:15:18;;;;;;;0.30;0.30;;;33.60;94.90;;;;;;5019438;28;20432;-68
2022/08/20 11:17:46;;;;;;;0.30;0.30;;;33.60;94.40;;;;;;5029385;28;20536;-67
2022/08/20 11:20:16;;;;;;;0.20;0.20;;;33.10;94.60;;;;;;5024427;28;20512;-65
2022/08/20 11:22:47;;;;;;;0.20;0.20;;;32.00;95.90;;;;;;5026128;28;20463;-66
2022/08/20 11:25:15;;;;;;;0.20;0.20;;;31.80;96.50;;;;;;5028533;28;20437;-66
2022/08/20 11:27:47;;;;;;;0.70;0.20;;;31.50;95.70;;;;;;5018749;28;20766;-66
2022/08/20 11:30:35;;;;;;;0.20;0.20;;;31.80;96.80;;;;;;5019512;28;20555;-66
2022/08/20 11:33:04;;;;;;;0.20;0.20;;;31.80;95.30;;;;;;5019415;28;20900;-67
2022/08/20 11:35:33;;;;;;;0.20;0.20;;;31.90;96.90;;;;;;5025443;28;20427;-66
2022/08/20 11:38:16;;;;;;;0.20;0.20;;;32.20;96.60;;;;;;5020132;28;20596;-67
2022/08/20 11:40:46;;;;;;;0.20;0.20;;;32.30;95.70;;;;;;5026655;28;20458;-67
2022/08/20 11:43:13;;;;;;;0.20;0.20;;;32.70;94.90;;;;;;5026175;28;20447;-66
2022/08/20 11:45:45;;;;;;;0.20;0.20;;;32.80;95.40;;;;;;5011399;28;20773;-66
2022/08/20 11:48:12;;;;;;;0.20;0.20;;;32.60;96.00;;;;;;5012036;28;20953;-66
2022/08/20 11:50:39;;;;;;;0.20;0.20;;;32.30;95.60;;;;;;5029551;28;20427;-66
2022/08/20 11:53:08;;;;;;;0.20;0.20;;;32.30;95.60;;;;;;5029457;28;20983;-67
2022/08/20 11:55:36;;;;;;;0.20;0.20;;;32.40;95.30;;;;;;5022478;28;20516;-66
2022/08/20 11:58:09;;;;;;;0.20;0.20;;;31.20;94.90;;;;;;5027083;28;20494;-66
2022/08/20 12:00:35;;;;;;;0.20;0.20;;;30.80;95.70;;;;;;5017999;28;20427;-66
2022/08/20 12:03:05;;;;;;;0.20;0.20;;;30.90;95.50;;;;;;5026449;28;20462;-66
2022/08/20 12:05:44;;;;;;;0.20;0.20;;;31.20;95.60;;;;;;5021339;28;20834;-66
2022/08/20 12:08:14;;;;;;;0.30;0.30;;;31.50;95.30;;;;;;5030160;28;20427;-66
2022/08/20 12:10:54;;;;;;;0.22;0.22;;;31.50;94.70;;;;;;5020304;28;20530;-67
2022/08/20 12:13:21;;;;;;;0.30;0.30;;;31.60;95.00;;;;;;5027994;28;20506;-66
2022/08/20 12:15:57;;;;;;;0.30;0.30;;;32.00;94.80;;;;;;5015225;28;20436;-66
2022/08/20 12:18:24;;;;;;;0.20;0.20;;;32.40;94.50;;;;;;5021191;28;20427;-66
2022/08/20 12:20:53;;;;;;;0.20;0.20;;;32.30;94.60;;;;;;5029305;28;20972;-66
2022/08/20 12:23:20;;;;;;;0.20;0.20;;;31.90;96.30;;;;;;5022191;28;20459;-66
2022/08/20 12:25:47;;;;;;;0.20;0.20;;;32.10;95.60;;;;;;5028800;28;20427;-66
2022/08/20 12:28:15;;;;;;;0.30;0.30;;;31.50;94.50;;;;;;5026025;28;20473;-66
2022/08/20 12:30:42;;;;;;;0.30;0.30;;;31.00;95.30;;;;;;5026779;28;20539;-66
2022/08/20 12:33:13;;;;;;;0.20;0.20;;;30.50;94.80;;;;;;5024377;28;20487;-67
2022/08/20 12:35:40;;;;;;;0.20;0.20;;;30.50;95.10;;;;;;5025131;28;20441;-65
2022/08/20 12:38:06;;;;;;;0.20;0.20;;;30.80;95.70;;;;;;5029216;28;20904;-65
2022/08/20 12:40:33;;;;;;;0.30;0.30;;;30.40;95.20;;;;;;5062594;28;20526;-66
2022/08/20 12:43:01;;;;;;;0.30;0.30;;;30.70;96.30;;;;;;5036383;28;20439;-66
2022/08/20 12:45:29;;;;;;;0.30;0.30;;;31.10;95.10;;;;;;5038822;28;20437;-65
2022/08/20 12:48:19;;;;;;;0.20;0.20;;;30.80;95.30;;;;;;5025248;28;20491;-66
2022/08/20 12:50:48;;;;;;;0.28;0.28;;;31.40;94.80;;;;;;5024994;28;20425;-66
2022/08/20 12:53:15;;;;;;;0.20;0.20;;;30.90;94.50;;;;;;5067108;28;20940;-65
2022/08/20 12:55:42;;;;;;;0.38;0.38;;;30.70;95.00;;;;;;5019933;28;20469;-66
2022/08/20 12:58:09;;;;;;;0.28;0.28;;;31.00;95.10;;;;;;5027097;28;20434;-66
2022/08/20 13:00:43;;;;;;;0.20;0.20;;;31.50;95.10;;;;;;5025274;28;20991;-65
2022/08/20 13:03:17;;;;;;;0.22;0.22;;;32.50;94.30;;;;;;5017478;28;20443;-66
2022/08/20 13:05:44;;;;;;;0.20;0.20;;;31.90;94.20;;;;;;5035722;28;20433;-67
2022/08/20 13:08:12;;;;;;;0.20;0.20;;;32.30;93.60;;;;;;5022684;28;20529;-66
2022/08/20 13:10:44;;;;;;;0.20;0.20;;;31.20;93.10;;;;;;5023781;28;20445;-67
2022/08/20 13:13:12;;;;;;;0.22;0.22;;;30.80;93.80;;;;;;5022375;28;20438;-67